sensor_id;sensor_type;location;lat;lon;timestamp;P1;durP1;ratioP1;P2;durP2;ratioP2
15629;SDS011;7914;50.842;0.166;2023-04-02T00:00:13;4.95;;;1.20;;
15629;SDS011;7914;50.842;0.166;2023-04-02T00:08:02;3.05;;;1.30;;
15629;SDS011;7914;50.842;0.166;2023-04-02T00:10:35;2.78;;;1.10;;
15629;SDS011;7914;50.842;0.166;2023-04-02T00:15:37;2.13;;;1.10;;
15629;SDS011;7914;50.842;0.166;2023-04-02T00:18:03;3.00;;;1.20;;
15629;SDS011;7914;50.842;0.166;2023-04-02T00:20:31;4.80;;;1.33;;
15629;SDS011;7914;50.842;0.166;2023-04-02T00:23:01;3.50;;;1.20;;
15629;SDS011;7914;50.842;0.166;2023-04-02T00:25:35;3.08;;;1.08;;
15629;SDS011;7914;50.842;0.166;2023-04-02T00:28:14;2.53;;;1.23;;
15629;SDS011;7914;50.842;0.166;2023-04-02T00:30:48;6.00;;;2.35;;
15629;SDS011;7914;50.842;0.166;2023-04-02T00:33:21;2.97;;;1.15;;
15629;SDS011;7914;50.842;0.166;2023-04-02T00:35:49;3.70;;;1.45;;
15629;SDS011;7914;50.842;0.166;2023-04-02T00:40:51;4.30;;;1.73;;
15629;SDS011;7914;50.842;0.166;2023-04-02T00:43:26;4.32;;;1.15;;
15629;SDS011;7914;50.842;0.166;2023-04-02T00:45:55;3.08;;;1.35;;
15629;SDS011;7914;50.842;0.166;2023-04-02T00:51:38;2.90;;;1.42;;
15629;SDS011;7914;50.842;0.166;2023-04-02T00:54:11;3.95;;;1.23;;
15629;SDS011;7914;50.842;0.166;2023-04-02T01:04:41;3.22;;;1.40;;
15629;SDS011;7914;50.842;0.166;2023-04-02T01:07:15;1.92;;;1.05;;
15629;SDS011;7914;50.842;0.166;2023-04-02T01:09:49;3.10;;;1.20;;
15629;SDS011;7914;50.842;0.166;2023-04-02T01:15:02;3.92;;;1.15;;
15629;SDS011;7914;50.842;0.166;2023-04-02T01:17:37;2.58;;;1.02;;
15629;SDS011;7914;50.842;0.166;2023-04-02T01:24:14;2.60;;;1.10;;
15629;SDS011;7914;50.842;0.166;2023-04-02T01:26:45;1.60;;;0.68;;
15629;SDS011;7914;50.842;0.166;2023-04-02T01:31:57;4.45;;;1.92;;
15629;SDS011;7914;50.842;0.166;2023-04-02T01:34:27;1.92;;;0.93;;
15629;SDS011;7914;50.842;0.166;2023-04-02T01:45:14;2.20;;;0.98;;
15629;SDS011;7914;50.842;0.166;2023-04-02T01:47:43;2.95;;;1.35;;
15629;SDS011;7914;50.842;0.166;2023-04-02T01:52:44;2.65;;;1.00;;
15629;SDS011;7914;50.842;0.166;2023-04-02T01:55:13;4.45;;;0.98;;
15629;SDS011;7914;50.842;0.166;2023-04-02T01:57:45;3.60;;;1.00;;
15629;SDS011;7914;50.842;0.166;2023-04-02T02:00:14;1.75;;;0.90;;
15629;SDS011;7914;50.842;0.166;2023-04-02T02:02:41;3.17;;;1.08;;
15629;SDS011;7914;50.842;0.166;2023-04-02T02:05:12;3.58;;;1.40;;
15629;SDS011;7914;50.842;0.166;2023-04-02T02:07:40;4.75;;;1.13;;
15629;SDS011;7914;50.842;0.166;2023-04-02T02:10:18;2.03;;;0.93;;
15629;SDS011;7914;50.842;0.166;2023-04-02T02:12:52;5.85;;;1.55;;
15629;SDS011;7914;50.842;0.166;2023-04-02T02:15:19;2.90;;;1.08;;
15629;SDS011;7914;50.842;0.166;2023-04-02T02:17:47;2.53;;;1.10;;
15629;SDS011;7914;50.842;0.166;2023-04-02T02:20:13;5.40;;;1.30;;
15629;SDS011;7914;50.842;0.166;2023-04-02T02:22:44;3.70;;;1.10;;
15629;SDS011;7914;50.842;0.166;2023-04-02T02:25:23;2.58;;;0.77;;
15629;SDS011;7914;50.842;0.166;2023-04-02T02:33:24;6.53;;;1.63;;
15629;SDS011;7914;50.842;0.166;2023-04-02T02:36:04;3.67;;;1.63;;
15629;SDS011;7914;50.842;0.166;2023-04-02T02:38:42;4.53;;;1.30;;
15629;SDS011;7914;50.842;0.166;2023-04-02T02:43:52;4.47;;;1.70;;
15629;SDS011;7914;50.842;0.166;2023-04-02T02:46:30;4.70;;;1.35;;
15629;SDS011;7914;50.842;0.166;2023-04-02T02:48:58;4.57;;;1.42;;
15629;SDS011;7914;50.842;0.166;2023-04-02T02:51:37;6.18;;;2.10;;
15629;SDS011;7914;50.842;0.166;2023-04-02T02:54:09;5.95;;;1.92;;
15629;SDS011;7914;50.842;0.166;2023-04-02T02:56:36;4.32;;;1.55;;
15629;SDS011;7914;50.842;0.166;2023-04-02T02:59:06;6.05;;;2.10;;
15629;SDS011;7914;50.842;0.166;2023-04-02T03:01:36;6.60;;;2.35;;
15629;SDS011;7914;50.842;0.166;2023-04-02T03:04:02;4.63;;;2.00;;
15629;SDS011;7914;50.842;0.166;2023-04-02T03:06:28;5.15;;;2.30;;
15629;SDS011;7914;50.842;0.166;2023-04-02T03:08:58;5.97;;;2.00;;
15629;SDS011;7914;50.842;0.166;2023-04-02T03:11:38;6.70;;;2.50;;
15629;SDS011;7914;50.842;0.166;2023-04-02T03:17:11;6.95;;;2.55;;
15629;SDS011;7914;50.842;0.166;2023-04-02T03:19:45;6.80;;;2.33;;
15629;SDS011;7914;50.842;0.166;2023-04-02T03:22:22;6.32;;;2.42;;
15629;SDS011;7914;50.842;0.166;2023-04-02T03:27:40;5.53;;;2.22;;
15629;SDS011;7914;50.842;0.166;2023-04-02T03:32:45;5.78;;;2.40;;
15629;SDS011;7914;50.842;0.166;2023-04-02T03:37:54;7.38;;;2.38;;
15629;SDS011;7914;50.842;0.166;2023-04-02T03:40:39;4.05;;;1.92;;
15629;SDS011;7914;50.842;0.166;2023-04-02T03:43:13;6.32;;;2.30;;
15629;SDS011;7914;50.842;0.166;2023-04-02T03:45:55;7.97;;;2.78;;
15629;SDS011;7914;50.842;0.166;2023-04-02T03:48:30;6.90;;;2.08;;
15629;SDS011;7914;50.842;0.166;2023-04-02T03:51:11;6.90;;;3.00;;
15629;SDS011;7914;50.842;0.166;2023-04-02T03:53:44;7.45;;;2.72;;
15629;SDS011;7914;50.842;0.166;2023-04-02T03:56:20;8.73;;;2.75;;
15629;SDS011;7914;50.842;0.166;2023-04-02T03:59:04;6.05;;;2.45;;
15629;SDS011;7914;50.842;0.166;2023-04-02T04:01:44;6.70;;;2.45;;
15629;SDS011;7914;50.842;0.166;2023-04-02T04:04:38;4.82;;;1.90;;
15629;SDS011;7914;50.842;0.166;2023-04-02T04:07:08;5.70;;;2.50;;
15629;SDS011;7914;50.842;0.166;2023-04-02T04:09:40;7.07;;;2.90;;
15629;SDS011;7914;50.842;0.166;2023-04-02T04:12:20;6.10;;;2.35;;
15629;SDS011;7914;50.842;0.166;2023-04-02T04:17:53;8.07;;;2.88;;
15629;SDS011;7914;50.842;0.166;2023-04-02T04:23:08;6.72;;;2.38;;
15629;SDS011;7914;50.842;0.166;2023-04-02T04:29:17;10.40;;;4.15;;
15629;SDS011;7914;50.842;0.166;2023-04-02T04:32:13;8.98;;;2.80;;
15629;SDS011;7914;50.842;0.166;2023-04-02T04:34:45;6.85;;;2.60;;
15629;SDS011;7914;50.842;0.166;2023-04-02T04:37:18;9.23;;;3.47;;
15629;SDS011;7914;50.842;0.166;2023-04-02T04:39:56;8.85;;;2.83;;
15629;SDS011;7914;50.842;0.166;2023-04-02T04:42:32;9.02;;;3.72;;
15629;SDS011;7914;50.842;0.166;2023-04-02T04:45:05;6.70;;;2.97;;
15629;SDS011;7914;50.842;0.166;2023-04-02T04:47:58;8.27;;;3.05;;
15629;SDS011;7914;50.842;0.166;2023-04-02T04:53:46;8.70;;;3.20;;
15629;SDS011;7914;50.842;0.166;2023-04-02T04:56:15;6.28;;;3.22;;
15629;SDS011;7914;50.842;0.166;2023-04-02T04:58:49;8.57;;;3.33;;
15629;SDS011;7914;50.842;0.166;2023-04-02T05:03:59;9.48;;;2.80;;
15629;SDS011;7914;50.842;0.166;2023-04-02T05:06:36;7.15;;;3.40;;
15629;SDS011;7914;50.842;0.166;2023-04-02T05:09:13;7.15;;;2.65;;
15629;SDS011;7914;50.842;0.166;2023-04-02T05:12:04;9.98;;;3.25;;
15629;SDS011;7914;50.842;0.166;2023-04-02T05:15:07;10.43;;;3.13;;
15629;SDS011;7914;50.842;0.166;2023-04-02T05:17:41;11.23;;;3.28;;
15629;SDS011;7914;50.842;0.166;2023-04-02T05:20:16;10.32;;;3.33;;
15629;SDS011;7914;50.842;0.166;2023-04-02T05:25:30;10.48;;;3.85;;
15629;SDS011;7914;50.842;0.166;2023-04-02T05:28:04;8.60;;;3.22;;
15629;SDS011;7914;50.842;0.166;2023-04-02T05:33:18;12.18;;;4.82;;
15629;SDS011;7914;50.842;0.166;2023-04-02T05:35:49;10.20;;;4.75;;
15629;SDS011;7914;50.842;0.166;2023-04-02T05:38:28;14.30;;;4.90;;
15629;SDS011;7914;50.842;0.166;2023-04-02T05:43:32;12.38;;;5.55;;
15629;SDS011;7914;50.842;0.166;2023-04-02T05:46:04;11.32;;;4.57;;
15629;SDS011;7914;50.842;0.166;2023-04-02T05:48:40;15.18;;;5.15;;
15629;SDS011;7914;50.842;0.166;2023-04-02T05:51:15;11.77;;;4.32;;
15629;SDS011;7914;50.842;0.166;2023-04-02T05:53:52;10.45;;;4.10;;
15629;SDS011;7914;50.842;0.166;2023-04-02T05:56:25;12.30;;;4.40;;
15629;SDS011;7914;50.842;0.166;2023-04-02T05:59:15;10.23;;;3.35;;
15629;SDS011;7914;50.842;0.166;2023-04-02T06:07:14;10.40;;;4.68;;
15629;SDS011;7914;50.842;0.166;2023-04-02T06:10:00;10.73;;;3.70;;
15629;SDS011;7914;50.842;0.166;2023-04-02T06:12:35;11.07;;;3.63;;
15629;SDS011;7914;50.842;0.166;2023-04-02T06:15:16;9.70;;;4.28;;
15629;SDS011;7914;50.842;0.166;2023-04-02T06:17:45;9.38;;;3.22;;
15629;SDS011;7914;50.842;0.166;2023-04-02T06:20:15;8.38;;;3.78;;
15629;SDS011;7914;50.842;0.166;2023-04-02T06:22:42;10.48;;;4.40;;
15629;SDS011;7914;50.842;0.166;2023-04-02T06:27:46;7.45;;;2.88;;
15629;SDS011;7914;50.842;0.166;2023-04-02T06:30:18;11.15;;;3.30;;
15629;SDS011;7914;50.842;0.166;2023-04-02T06:32:48;9.57;;;2.95;;
15629;SDS011;7914;50.842;0.166;2023-04-02T06:35:14;10.65;;;3.35;;
15629;SDS011;7914;50.842;0.166;2023-04-02T06:37:44;8.38;;;3.55;;
15629;SDS011;7914;50.842;0.166;2023-04-02T06:43:12;12.52;;;3.60;;
15629;SDS011;7914;50.842;0.166;2023-04-02T06:46:06;9.25;;;2.92;;
15629;SDS011;7914;50.842;0.166;2023-04-02T06:48:42;9.20;;;2.47;;
15629;SDS011;7914;50.842;0.166;2023-04-02T06:51:13;8.48;;;2.78;;
15629;SDS011;7914;50.842;0.166;2023-04-02T06:53:45;10.75;;;3.50;;
15629;SDS011;7914;50.842;0.166;2023-04-02T06:59:16;10.00;;;3.15;;
15629;SDS011;7914;50.842;0.166;2023-04-02T07:01:55;10.48;;;3.42;;
15629;SDS011;7914;50.842;0.166;2023-04-02T07:04:25;9.73;;;3.10;;
15629;SDS011;7914;50.842;0.166;2023-04-02T07:06:51;7.18;;;2.80;;
15629;SDS011;7914;50.842;0.166;2023-04-02T07:09:17;13.85;;;2.53;;
15629;SDS011;7914;50.842;0.166;2023-04-02T07:11:43;6.43;;;2.25;;
15629;SDS011;7914;50.842;0.166;2023-04-02T07:14:10;9.73;;;2.80;;
15629;SDS011;7914;50.842;0.166;2023-04-02T07:16:38;7.22;;;2.35;;
15629;SDS011;7914;50.842;0.166;2023-04-02T07:19:05;8.73;;;2.38;;
15629;SDS011;7914;50.842;0.166;2023-04-02T07:21:32;6.05;;;2.00;;
15629;SDS011;7914;50.842;0.166;2023-04-02T07:23:57;8.50;;;2.35;;
15629;SDS011;7914;50.842;0.166;2023-04-02T07:26:24;5.63;;;2.15;;
15629;SDS011;7914;50.842;0.166;2023-04-02T07:28:52;7.97;;;2.50;;
15629;SDS011;7914;50.842;0.166;2023-04-02T07:31:20;8.38;;;2.13;;
15629;SDS011;7914;50.842;0.166;2023-04-02T07:33:53;5.65;;;2.47;;
15629;SDS011;7914;50.842;0.166;2023-04-02T07:36:25;5.43;;;2.38;;
15629;SDS011;7914;50.842;0.166;2023-04-02T07:38:53;8.48;;;1.65;;
15629;SDS011;7914;50.842;0.166;2023-04-02T07:41:19;5.35;;;2.13;;
15629;SDS011;7914;50.842;0.166;2023-04-02T07:43:45;8.40;;;2.38;;
15629;SDS011;7914;50.842;0.166;2023-04-02T07:46:11;9.55;;;2.30;;
15629;SDS011;7914;50.842;0.166;2023-04-02T07:48:41;8.45;;;1.67;;
15629;SDS011;7914;50.842;0.166;2023-04-02T07:51:15;4.35;;;1.98;;
15629;SDS011;7914;50.842;0.166;2023-04-02T07:53:44;4.45;;;1.60;;
15629;SDS011;7914;50.842;0.166;2023-04-02T07:56:15;6.57;;;2.25;;
15629;SDS011;7914;50.842;0.166;2023-04-02T07:58:43;7.80;;;2.10;;
15629;SDS011;7914;50.842;0.166;2023-04-02T08:01:17;5.43;;;2.35;;
15629;SDS011;7914;50.842;0.166;2023-04-02T08:03:45;7.53;;;2.33;;
15629;SDS011;7914;50.842;0.166;2023-04-02T08:06:12;8.80;;;2.22;;
15629;SDS011;7914;50.842;0.166;2023-04-02T08:08:38;9.30;;;2.10;;
15629;SDS011;7914;50.842;0.166;2023-04-02T08:11:04;8.05;;;2.42;;
15629;SDS011;7914;50.842;0.166;2023-04-02T08:13:30;7.50;;;2.38;;
15629;SDS011;7914;50.842;0.166;2023-04-02T08:15:58;5.60;;;1.77;;
15629;SDS011;7914;50.842;0.166;2023-04-02T08:18:24;7.65;;;2.40;;
15629;SDS011;7914;50.842;0.166;2023-04-02T08:20:51;8.25;;;2.00;;
15629;SDS011;7914;50.842;0.166;2023-04-02T08:23:18;6.05;;;2.05;;
15629;SDS011;7914;50.842;0.166;2023-04-02T08:25:44;4.00;;;1.13;;
15629;SDS011;7914;50.842;0.166;2023-04-02T08:28:10;7.57;;;1.77;;
15629;SDS011;7914;50.842;0.166;2023-04-02T08:30:37;5.60;;;1.83;;
15629;SDS011;7914;50.842;0.166;2023-04-02T08:33:03;7.63;;;1.80;;
15629;SDS011;7914;50.842;0.166;2023-04-02T08:35:29;6.90;;;2.10;;
15629;SDS011;7914;50.842;0.166;2023-04-02T08:37:56;6.70;;;2.28;;
15629;SDS011;7914;50.842;0.166;2023-04-02T08:40:26;5.95;;;2.28;;
15629;SDS011;7914;50.842;0.166;2023-04-02T08:48:26;6.57;;;1.95;;
15629;SDS011;7914;50.842;0.166;2023-04-02T08:50:54;8.25;;;1.60;;
15629;SDS011;7914;50.842;0.166;2023-04-02T08:53:22;8.70;;;2.03;;
15629;SDS011;7914;50.842;0.166;2023-04-02T08:56:14;2.58;;;1.15;;
15629;SDS011;7914;50.842;0.166;2023-04-02T08:58:50;4.85;;;1.70;;
15629;SDS011;7914;50.842;0.166;2023-04-02T09:04:06;8.52;;;2.08;;
15629;SDS011;7914;50.842;0.166;2023-04-02T09:06:39;4.55;;;1.70;;
15629;SDS011;7914;50.842;0.166;2023-04-02T09:09:08;6.70;;;2.60;;
15629;SDS011;7914;50.842;0.166;2023-04-02T09:11:40;5.95;;;1.73;;
15629;SDS011;7914;50.842;0.166;2023-04-02T09:14:12;6.15;;;1.98;;
15629;SDS011;7914;50.842;0.166;2023-04-02T09:16:43;10.70;;;2.40;;
15629;SDS011;7914;50.842;0.166;2023-04-02T09:19:13;7.75;;;2.10;;
15629;SDS011;7914;50.842;0.166;2023-04-02T09:24:28;5.88;;;2.00;;
15629;SDS011;7914;50.842;0.166;2023-04-02T09:26:54;5.85;;;1.85;;
15629;SDS011;7914;50.842;0.166;2023-04-02T09:29:25;7.10;;;2.28;;
15629;SDS011;7914;50.842;0.166;2023-04-02T09:34:28;9.77;;;1.92;;
15629;SDS011;7914;50.842;0.166;2023-04-02T09:36:56;5.35;;;1.83;;
15629;SDS011;7914;50.842;0.166;2023-04-02T09:39:38;10.35;;;2.63;;
15629;SDS011;7914;50.842;0.166;2023-04-02T09:45:12;5.00;;;1.40;;
15629;SDS011;7914;50.842;0.166;2023-04-02T09:47:42;6.18;;;1.90;;
15629;SDS011;7914;50.842;0.166;2023-04-02T09:52:46;7.78;;;1.58;;
15629;SDS011;7914;50.842;0.166;2023-04-02T10:02:43;5.30;;;1.55;;
15629;SDS011;7914;50.842;0.166;2023-04-02T10:05:17;7.00;;;2.25;;
15629;SDS011;7914;50.842;0.166;2023-04-02T10:07:49;10.82;;;2.17;;
15629;SDS011;7914;50.842;0.166;2023-04-02T10:12:59;7.50;;;2.30;;
15629;SDS011;7914;50.842;0.166;2023-04-02T10:21:34;11.40;;;2.03;;
15629;SDS011;7914;50.842;0.166;2023-04-02T10:24:07;9.30;;;2.60;;
15629;SDS011;7914;50.842;0.166;2023-04-02T10:46:20;6.55;;;1.77;;
15629;SDS011;7914;50.842;0.166;2023-04-02T10:56:41;9.05;;;2.03;;
15629;SDS011;7914;50.842;0.166;2023-04-02T10:59:14;3.78;;;1.15;;
15629;SDS011;7914;50.842;0.166;2023-04-02T11:01:43;7.93;;;1.65;;
15629;SDS011;7914;50.842;0.166;2023-04-02T11:04:23;7.55;;;1.90;;
15629;SDS011;7914;50.842;0.166;2023-04-02T11:07:00;8.68;;;1.95;;
15629;SDS011;7914;50.842;0.166;2023-04-02T11:09:31;7.85;;;2.10;;
15629;SDS011;7914;50.842;0.166;2023-04-02T11:12:03;7.20;;;1.58;;
15629;SDS011;7914;50.842;0.166;2023-04-02T11:14:31;7.45;;;2.58;;
15629;SDS011;7914;50.842;0.166;2023-04-02T11:16:58;6.10;;;1.55;;
15629;SDS011;7914;50.842;0.166;2023-04-02T11:19:33;8.23;;;2.22;;
15629;SDS011;7914;50.842;0.166;2023-04-02T11:22:42;7.45;;;1.65;;
15629;SDS011;7914;50.842;0.166;2023-04-02T11:24:50;8.48;;;1.85;;
15629;SDS011;7914;50.842;0.166;2023-04-02T11:32:43;10.27;;;2.05;;
15629;SDS011;7914;50.842;0.166;2023-04-02T11:37:51;7.22;;;2.20;;
15629;SDS011;7914;50.842;0.166;2023-04-02T11:48:48;7.35;;;1.90;;
15629;SDS011;7914;50.842;0.166;2023-04-02T11:53:46;7.88;;;2.20;;
15629;SDS011;7914;50.842;0.166;2023-04-02T12:10:16;6.45;;;1.65;;
15629;SDS011;7914;50.842;0.166;2023-04-02T12:12:44;7.07;;;1.80;;
15629;SDS011;7914;50.842;0.166;2023-04-02T12:18:04;10.35;;;1.92;;
15629;SDS011;7914;50.842;0.166;2023-04-02T12:20:34;6.70;;;1.98;;
15629;SDS011;7914;50.842;0.166;2023-04-02T12:23:00;6.97;;;1.80;;
15629;SDS011;7914;50.842;0.166;2023-04-02T12:25:30;3.15;;;1.17;;
15629;SDS011;7914;50.842;0.166;2023-04-02T12:28:05;10.30;;;2.10;;
15629;SDS011;7914;50.842;0.166;2023-04-02T12:30:34;8.30;;;2.33;;
15629;SDS011;7914;50.842;0.166;2023-04-02T12:35:45;5.15;;;2.00;;
15629;SDS011;7914;50.842;0.166;2023-04-02T12:38:20;7.60;;;2.95;;
15629;SDS011;7914;50.842;0.166;2023-04-02T12:40:57;5.93;;;1.70;;
15629;SDS011;7914;50.842;0.166;2023-04-02T12:46:03;4.50;;;1.75;;
15629;SDS011;7914;50.842;0.166;2023-04-02T12:48:31;9.75;;;1.95;;
15629;SDS011;7914;50.842;0.166;2023-04-02T12:50:59;7.20;;;2.65;;
15629;SDS011;7914;50.842;0.166;2023-04-02T12:53:32;10.90;;;1.80;;
15629;SDS011;7914;50.842;0.166;2023-04-02T12:56:00;5.25;;;1.63;;
15629;SDS011;7914;50.842;0.166;2023-04-02T12:58:32;8.05;;;1.98;;
15629;SDS011;7914;50.842;0.166;2023-04-02T13:01:08;9.43;;;2.42;;
15629;SDS011;7914;50.842;0.166;2023-04-02T13:06:30;5.82;;;1.60;;
15629;SDS011;7914;50.842;0.166;2023-04-02T13:08:58;6.53;;;1.55;;
15629;SDS011;7914;50.842;0.166;2023-04-02T13:11:35;6.50;;;1.55;;
15629;SDS011;7914;50.842;0.166;2023-04-02T13:14:03;5.30;;;1.60;;
15629;SDS011;7914;50.842;0.166;2023-04-02T13:16:32;6.20;;;2.00;;
15629;SDS011;7914;50.842;0.166;2023-04-02T13:21:52;5.75;;;1.45;;
15629;SDS011;7914;50.842;0.166;2023-04-02T13:24:29;5.95;;;1.48;;
15629;SDS011;7914;50.842;0.166;2023-04-02T13:26:57;5.45;;;1.33;;
15629;SDS011;7914;50.842;0.166;2023-04-02T13:31:57;4.47;;;1.25;;
15629;SDS011;7914;50.842;0.166;2023-04-02T13:34:25;4.97;;;1.50;;
15629;SDS011;7914;50.842;0.166;2023-04-02T13:36:51;7.38;;;1.70;;
15629;SDS011;7914;50.842;0.166;2023-04-02T13:39:17;4.93;;;1.30;;
15629;SDS011;7914;50.842;0.166;2023-04-02T13:44:24;8.02;;;1.50;;
15629;SDS011;7914;50.842;0.166;2023-04-02T13:47:01;3.40;;;0.98;;
15629;SDS011;7914;50.842;0.166;2023-04-02T13:49:27;5.72;;;1.92;;
15629;SDS011;7914;50.842;0.166;2023-04-02T13:52:03;3.70;;;1.15;;
15629;SDS011;7914;50.842;0.166;2023-04-02T13:54:30;4.20;;;2.00;;
15629;SDS011;7914;50.842;0.166;2023-04-02T13:56:58;4.20;;;1.30;;
15629;SDS011;7914;50.842;0.166;2023-04-02T13:59:25;6.45;;;1.60;;
15629;SDS011;7914;50.842;0.166;2023-04-02T14:01:55;7.07;;;1.80;;
15629;SDS011;7914;50.842;0.166;2023-04-02T14:04:25;9.45;;;2.22;;
15629;SDS011;7914;50.842;0.166;2023-04-02T14:24:07;7.93;;;1.52;;
15629;SDS011;7914;50.842;0.166;2023-04-02T14:29:36;6.07;;;1.17;;
15629;SDS011;7914;50.842;0.166;2023-04-02T14:48:02;7.32;;;1.70;;
15629;SDS011;7914;50.842;0.166;2023-04-02T14:50:42;7.40;;;1.50;;
15629;SDS011;7914;50.842;0.166;2023-04-02T14:53:16;5.65;;;1.30;;
15629;SDS011;7914;50.842;0.166;2023-04-02T14:55:48;5.80;;;1.58;;
15629;SDS011;7914;50.842;0.166;2023-04-02T14:58:20;6.88;;;1.60;;
15629;SDS011;7914;50.842;0.166;2023-04-02T15:00:55;4.85;;;1.58;;
15629;SDS011;7914;50.842;0.166;2023-04-02T15:03:48;8.70;;;2.25;;
15629;SDS011;7914;50.842;0.166;2023-04-02T15:06:18;6.50;;;1.13;;
15629;SDS011;7914;50.842;0.166;2023-04-02T15:08:50;5.72;;;1.50;;
15629;SDS011;7914;50.842;0.166;2023-04-02T15:11:23;8.45;;;1.88;;
15629;SDS011;7914;50.842;0.166;2023-04-02T15:14:07;8.13;;;1.58;;
15629;SDS011;7914;50.842;0.166;2023-04-02T15:17:11;8.45;;;1.70;;
15629;SDS011;7914;50.842;0.166;2023-04-02T15:19:37;5.68;;;1.45;;
15629;SDS011;7914;50.842;0.166;2023-04-02T15:27:56;3.88;;;1.05;;
15629;SDS011;7914;50.842;0.166;2023-04-02T15:30:42;7.45;;;1.17;;
15629;SDS011;7914;50.842;0.166;2023-04-02T15:36:51;5.38;;;1.25;;
15629;SDS011;7914;50.842;0.166;2023-04-02T15:41:55;5.72;;;1.35;;
15629;SDS011;7914;50.842;0.166;2023-04-02T15:44:27;3.47;;;1.08;;
15629;SDS011;7914;50.842;0.166;2023-04-02T15:47:11;7.43;;;1.30;;
15629;SDS011;7914;50.842;0.166;2023-04-02T15:52:30;3.92;;;0.95;;
15629;SDS011;7914;50.842;0.166;2023-04-02T16:00:27;6.32;;;1.67;;
15629;SDS011;7914;50.842;0.166;2023-04-02T16:11:21;8.02;;;1.40;;
15629;SDS011;7914;50.842;0.166;2023-04-02T16:13:48;4.30;;;1.02;;
15629;SDS011;7914;50.842;0.166;2023-04-02T16:16:16;3.63;;;0.90;;
15629;SDS011;7914;50.842;0.166;2023-04-02T16:18:54;5.55;;;1.77;;
15629;SDS011;7914;50.842;0.166;2023-04-02T16:21:42;3.85;;;1.10;;
15629;SDS011;7914;50.842;0.166;2023-04-02T16:24:14;5.80;;;1.50;;
15629;SDS011;7914;50.842;0.166;2023-04-02T16:29:30;3.70;;;1.25;;
15629;SDS011;7914;50.842;0.166;2023-04-02T16:34:52;5.78;;;1.23;;
15629;SDS011;7914;50.842;0.166;2023-04-02T16:37:51;7.70;;;2.00;;
15629;SDS011;7914;50.842;0.166;2023-04-02T16:43:19;4.95;;;1.42;;
15629;SDS011;7914;50.842;0.166;2023-04-02T16:51:23;5.63;;;1.52;;
15629;SDS011;7914;50.842;0.166;2023-04-02T17:00:05;7.75;;;1.58;;
15629;SDS011;7914;50.842;0.166;2023-04-02T17:13:36;5.70;;;1.70;;
15629;SDS011;7914;50.842;0.166;2023-04-02T17:16:27;5.78;;;1.45;;
15629;SDS011;7914;50.842;0.166;2023-04-02T17:19:12;13.10;;;1.73;;
15629;SDS011;7914;50.842;0.166;2023-04-02T17:21:40;5.72;;;1.70;;
15629;SDS011;7914;50.842;0.166;2023-04-02T17:26:44;9.18;;;2.08;;
15629;SDS011;7914;50.842;0.166;2023-04-02T17:29:58;5.15;;;1.85;;
15629;SDS011;7914;50.842;0.166;2023-04-02T17:32:21;5.10;;;1.75;;
15629;SDS011;7914;50.842;0.166;2023-04-02T17:34:50;4.68;;;2.13;;
15629;SDS011;7914;50.842;0.166;2023-04-02T17:37:28;8.32;;;1.77;;
15629;SDS011;7914;50.842;0.166;2023-04-02T17:40:11;8.95;;;1.70;;
15629;SDS011;7914;50.842;0.166;2023-04-02T17:42:52;3.95;;;1.17;;
15629;SDS011;7914;50.842;0.166;2023-04-02T17:48:06;6.53;;;1.90;;
15629;SDS011;7914;50.842;0.166;2023-04-02T17:50:53;14.45;;;2.53;;
15629;SDS011;7914;50.842;0.166;2023-04-02T17:56:25;7.22;;;1.80;;
15629;SDS011;7914;50.842;0.166;2023-04-02T17:59:01;5.55;;;1.40;;
15629;SDS011;7914;50.842;0.166;2023-04-02T18:01:39;8.05;;;1.52;;
15629;SDS011;7914;50.842;0.166;2023-04-02T18:04:20;8.40;;;3.03;;
15629;SDS011;7914;50.842;0.166;2023-04-02T18:20:52;7.65;;;1.77;;
15629;SDS011;7914;50.842;0.166;2023-04-02T18:26:26;3.30;;;1.27;;
15629;SDS011;7914;50.842;0.166;2023-04-02T18:31:49;5.72;;;1.90;;
15629;SDS011;7914;50.842;0.166;2023-04-02T18:36:55;4.43;;;1.15;;
15629;SDS011;7914;50.842;0.166;2023-04-02T18:42:37;7.07;;;1.27;;
15629;SDS011;7914;50.842;0.166;2023-04-02T18:50:54;6.13;;;2.00;;
15629;SDS011;7914;50.842;0.166;2023-04-02T18:53:25;8.10;;;2.00;;
15629;SDS011;7914;50.842;0.166;2023-04-02T18:55:54;6.90;;;1.40;;
15629;SDS011;7914;50.842;0.166;2023-04-02T19:01:04;7.00;;;1.80;;
15629;SDS011;7914;50.842;0.166;2023-04-02T19:03:44;7.97;;;2.10;;
15629;SDS011;7914;50.842;0.166;2023-04-02T19:06:19;8.70;;;2.47;;
15629;SDS011;7914;50.842;0.166;2023-04-02T19:08:53;7.20;;;1.52;;
15629;SDS011;7914;50.842;0.166;2023-04-02T19:11:24;10.68;;;3.13;;
15629;SDS011;7914;50.842;0.166;2023-04-02T19:13:59;10.30;;;3.22;;
15629;SDS011;7914;50.842;0.166;2023-04-02T19:19:17;7.03;;;1.90;;
15629;SDS011;7914;50.842;0.166;2023-04-02T19:33:02;8.00;;;1.38;;
15629;SDS011;7914;50.842;0.166;2023-04-02T19:35:57;9.73;;;1.98;;
15629;SDS011;7914;50.842;0.166;2023-04-02T19:38:38;7.93;;;1.70;;
15629;SDS011;7914;50.842;0.166;2023-04-02T19:43:55;7.30;;;1.88;;
15629;SDS011;7914;50.842;0.166;2023-04-02T19:46:23;15.38;;;2.63;;
15629;SDS011;7914;50.842;0.166;2023-04-02T19:51:27;5.25;;;1.33;;
15629;SDS011;7914;50.842;0.166;2023-04-02T19:53:53;12.02;;;1.80;;
15629;SDS011;7914;50.842;0.166;2023-04-02T19:56:19;7.32;;;1.92;;
15629;SDS011;7914;50.842;0.166;2023-04-02T19:58:45;8.45;;;1.60;;
15629;SDS011;7914;50.842;0.166;2023-04-02T20:01:11;6.07;;;2.05;;
15629;SDS011;7914;50.842;0.166;2023-04-02T20:03:37;5.47;;;1.60;;
15629;SDS011;7914;50.842;0.166;2023-04-02T20:06:03;6.70;;;1.65;;
15629;SDS011;7914;50.842;0.166;2023-04-02T20:08:28;10.50;;;2.47;;
15629;SDS011;7914;50.842;0.166;2023-04-02T20:10:54;6.18;;;2.15;;
15629;SDS011;7914;50.842;0.166;2023-04-02T20:13:22;7.25;;;1.25;;
15629;SDS011;7914;50.842;0.166;2023-04-02T20:15:48;9.00;;;1.80;;
15629;SDS011;7914;50.842;0.166;2023-04-02T20:18:15;8.35;;;1.95;;
15629;SDS011;7914;50.842;0.166;2023-04-02T20:20:45;5.75;;;1.60;;
15629;SDS011;7914;50.842;0.166;2023-04-02T20:23:12;10.00;;;2.08;;
15629;SDS011;7914;50.842;0.166;2023-04-02T20:25:42;7.55;;;1.95;;
15629;SDS011;7914;50.842;0.166;2023-04-02T20:28:12;14.25;;;2.67;;
15629;SDS011;7914;50.842;0.166;2023-04-02T20:30:38;7.03;;;2.15;;
15629;SDS011;7914;50.842;0.166;2023-04-02T20:33:04;6.20;;;1.58;;
15629;SDS011;7914;50.842;0.166;2023-04-02T20:35:30;10.50;;;1.98;;
15629;SDS011;7914;50.842;0.166;2023-04-02T20:37:58;9.73;;;1.98;;
15629;SDS011;7914;50.842;0.166;2023-04-02T20:40:24;6.88;;;1.80;;
15629;SDS011;7914;50.842;0.166;2023-04-02T20:42:50;4.85;;;1.70;;
15629;SDS011;7914;50.842;0.166;2023-04-02T20:45:18;8.77;;;2.50;;
15629;SDS011;7914;50.842;0.166;2023-04-02T20:47:43;6.93;;;1.45;;
15629;SDS011;7914;50.842;0.166;2023-04-02T20:50:09;7.35;;;1.88;;
15629;SDS011;7914;50.842;0.166;2023-04-02T20:52:35;4.80;;;1.55;;
15629;SDS011;7914;50.842;0.166;2023-04-02T20:55:01;6.20;;;1.27;;
15629;SDS011;7914;50.842;0.166;2023-04-02T20:57:28;5.70;;;1.77;;
15629;SDS011;7914;50.842;0.166;2023-04-02T20:59:54;6.32;;;1.55;;
15629;SDS011;7914;50.842;0.166;2023-04-02T21:02:20;3.80;;;1.50;;
15629;SDS011;7914;50.842;0.166;2023-04-02T21:04:46;7.13;;;2.10;;
15629;SDS011;7914;50.842;0.166;2023-04-02T21:07:12;9.00;;;1.90;;
15629;SDS011;7914;50.842;0.166;2023-04-02T21:09:38;12.43;;;2.22;;
15629;SDS011;7914;50.842;0.166;2023-04-02T21:12:04;6.65;;;1.48;;
15629;SDS011;7914;50.842;0.166;2023-04-02T21:14:31;8.90;;;2.30;;
15629;SDS011;7914;50.842;0.166;2023-04-02T21:17:01;11.13;;;1.85;;
15629;SDS011;7914;50.842;0.166;2023-04-02T21:19:27;9.90;;;2.20;;
15629;SDS011;7914;50.842;0.166;2023-04-02T21:21:53;8.27;;;2.17;;
15629;SDS011;7914;50.842;0.166;2023-04-02T21:24:19;9.50;;;1.70;;
15629;SDS011;7914;50.842;0.166;2023-04-02T21:26:45;4.03;;;1.20;;
15629;SDS011;7914;50.842;0.166;2023-04-02T21:29:11;5.03;;;1.58;;
15629;SDS011;7914;50.842;0.166;2023-04-02T21:31:37;8.32;;;2.47;;
15629;SDS011;7914;50.842;0.166;2023-04-02T21:34:04;6.50;;;1.70;;
15629;SDS011;7914;50.842;0.166;2023-04-02T21:36:32;6.15;;;2.03;;
15629;SDS011;7914;50.842;0.166;2023-04-02T21:39:01;11.00;;;1.63;;